Terminal Aerodrome Forecast
Issued by NWS Cleveland, OH

Home | Current Version | Previous Version | Text Only | Print | Product List | Glossary Off
Versions: 1 2 3 4 5 6 7 8 9 10 11 12 13 14 15 16

000
FTUS41 KCLE 151732
TAFTOL
TAF
KTOL 151732Z 1518/1618 28020G35KT P6SM SCT015 OVC025
      TEMPO 1521/1601 BKN015
     FM160100 31012G20KT P6SM BKN025
     FM160900 31006KT P6SM SCT025
     FM161600 28008KT P6SM SCT035=

USA.gov is the U.S. government's official web portal to all federal, state and local government web resources and services.